Time;durP1;ratioP1;P1;durP2;ratioP2;P2;SDS_P1;SDS_P2;PMS_P1;PMS_P2;Temp;Humidity;BMP_temperature;BMP_pressure;BME280_temperature;BME280_humidity;BME280_pressure;Samples;Min_cycle;Max_cycle;Signal;HPM_P1;HPM_P2
2022/03/14 00:00:54;;;;;;;15.77;10.70;;;6.00;54.00;;;;;;4991936;28;20033;-51
2022/03/14 00:03:45;;;;;;;14.40;10.02;;;5.90;54.10;;;;;;4991156;28;20065;-50
2022/03/14 00:06:29;;;;;;;15.45;9.68;;;5.90;54.00;;;;;;4991839;28;20037;-52
2022/03/14 00:09:14;;;;;;;15.90;10.73;;;5.80;54.10;;;;;;4991703;28;20049;-53
2022/03/14 00:11:58;;;;;;;14.18;9.93;;;5.80;54.20;;;;;;4991292;28;20448;-53
2022/03/14 00:14:43;;;;;;;13.55;10.35;;;5.80;54.30;;;;;;4975235;28;20538;-52
2022/03/14 00:17:28;;;;;;;15.27;10.35;;;5.80;54.30;;;;;;4992902;28;20494;-53
2022/03/14 00:20:13;;;;;;;16.08;10.27;;;5.70;54.30;;;;;;4995262;28;20038;-54
2022/03/14 00:22:59;;;;;;;16.27;11.05;;;5.70;54.50;;;;;;4994605;28;20049;-53
2022/03/14 00:25:44;;;;;;;13.82;10.73;;;5.70;55.00;;;;;;4994958;28;20041;-52
2022/03/14 00:28:28;;;;;;;13.48;10.40;;;5.60;54.30;;;;;;4994589;28;20071;-53
2022/03/14 00:31:13;;;;;;;14.43;10.35;;;5.60;54.50;;;;;;4995077;28;20108;-53
2022/03/14 00:33:58;;;;;;;13.18;10.05;;;5.70;54.60;;;;;;4994718;28;20041;-55
2022/03/14 00:36:42;;;;;;;14.30;9.93;;;5.60;54.50;;;;;;5006634;28;20029;-52
2022/03/14 00:39:27;;;;;;;15.38;10.70;;;5.60;54.50;;;;;;4990742;28;20034;-53
2022/03/14 00:42:12;;;;;;;11.93;9.90;;;5.60;54.50;;;;;;4990210;28;20517;-54
2022/03/14 00:44:56;;;;;;;13.15;9.75;;;5.50;54.90;;;;;;4994250;28;20095;-53
2022/03/14 00:47:40;;;;;;;15.57;10.60;;;5.50;55.10;;;;;;4992307;28;20045;-53
2022/03/14 00:50:25;;;;;;;15.40;10.32;;;5.70;55.20;;;;;;4994625;28;20449;-51
2022/03/14 00:53:09;;;;;;;13.20;9.77;;;5.80;55.40;;;;;;4993181;28;20157;-51
2022/03/14 00:55:54;;;;;;;13.32;9.90;;;5.90;55.70;;;;;;4994246;28;20172;-52
2022/03/14 00:58:38;;;;;;;13.98;9.93;;;5.90;55.50;;;;;;4992891;28;20688;-52
2022/03/14 01:01:22;;;;;;;14.70;10.30;;;5.90;55.30;;;;;;4993692;28;20149;-56
2022/03/14 01:04:06;;;;;;;15.30;9.90;;;5.90;54.90;;;;;;4987390;28;20096;-54
2022/03/14 01:06:50;;;;;;;14.80;9.68;;;5.90;55.10;;;;;;4984271;28;20053;-58
2022/03/14 01:09:34;;;;;;;15.82;10.57;;;5.90;55.30;;;;;;4974711;28;20680;-56
2022/03/14 01:12:18;;;;;;;12.65;10.00;;;5.90;55.50;;;;;;4989458;28;20056;-57
2022/03/14 01:15:03;;;;;;;15.00;10.38;;;6.00;56.20;;;;;;4988351;28;20034;-52
2022/03/14 01:17:47;;;;;;;;;;;5.90;57.00;;;;;;4993721;28;20049;-52
2022/03/14 01:20:33;;;;;;;15.77;10.50;;;5.90;57.10;;;;;;4993657;28;19932;-54
2022/03/14 01:23:18;;;;;;;16.02;10.55;;;5.90;57.20;;;;;;4973457;28;20050;-53
2022/03/14 01:26:03;;;;;;;;;;;5.90;57.40;;;;;;4978686;28;20045;-57
2022/03/14 01:28:48;;;;;;;15.65;10.65;;;5.80;57.10;;;;;;4993830;28;19916;-57
2022/03/14 01:31:32;;;;;;;;;;;5.70;56.60;;;;;;4993697;28;20154;-49
2022/03/14 01:34:16;;;;;;;14.38;9.55;;;5.70;56.30;;;;;;4993456;28;20020;-53
2022/03/14 01:37:01;;;;;;;12.27;9.70;;;5.60;56.60;;;;;;4993140;28;20074;-52
2022/03/14 01:39:46;;;;;;;13.88;10.05;;;5.60;56.60;;;;;;4993151;28;20113;-57
2022/03/14 01:42:30;;;;;;;14.45;10.77;;;5.50;56.70;;;;;;4985828;28;20026;-48
2022/03/14 01:45:17;;;;;;;;;;;5.60;56.70;;;;;;4993568;28;20054;-54
2022/03/14 01:48:02;;;;;;;12.70;10.18;;;5.60;57.00;;;;;;4994287;28;19912;-54
2022/03/14 01:50:46;;;;;;;;;;;5.60;57.50;;;;;;5007149;28;20093;-52
2022/03/14 01:53:31;;;;;;;12.30;9.82;;;5.50;60.90;;;;;;4993726;28;19917;-53
2022/03/14 01:56:16;;;;;;;;;;;5.50;62.00;;;;;;4994268;28;20045;-55
2022/03/14 01:59:01;;;;;;;15.50;10.20;;;5.40;62.70;;;;;;4992985;28;19990;-55
2022/03/14 02:01:46;;;;;;;15.35;10.73;;;5.40;62.90;;;;;;4992460;28;20126;-58
2022/03/14 02:04:30;;;;;;;16.58;10.23;;;5.30;62.90;;;;;;4992615;28;20026;-56
2022/03/14 02:07:14;;;;;;;14.60;10.30;;;5.30;62.80;;;;;;4992503;28;20037;-57
2022/03/14 02:09:58;;;;;;;13.60;10.18;;;5.30;62.30;;;;;;4992224;28;20037;-55
2022/03/14 02:12:44;;;;;;;14.43;10.18;;;5.30;60.70;;;;;;4993530;28;20041;-51
2022/03/14 02:15:28;;;;;;;14.43;10.85;;;5.30;61.20;;;;;;4973441;28;20117;-52
2022/03/14 02:18:12;;;;;;;15.10;10.88;;;5.20;60.20;;;;;;4984091;28;20077;-53
2022/03/14 02:20:56;;;;;;;14.75;10.73;;;5.20;60.40;;;;;;5005394;28;20038;-58
2022/03/14 02:23:41;;;;;;;14.18;11.23;;;5.20;60.80;;;;;;4991225;28;20112;-54
2022/03/14 02:26:25;;;;;;;14.85;10.48;;;5.20;60.90;;;;;;4993224;28;20037;-53
2022/03/14 02:29:10;;;;;;;17.88;11.57;;;5.20;60.70;;;;;;4992816;28;20061;-54
2022/03/14 02:31:55;;;;;;;16.75;11.23;;;5.20;60.10;;;;;;4992808;28;20037;-57
2022/03/14 02:34:41;;;;;;;14.15;10.32;;;5.20;60.10;;;;;;4992231;28;20401;-55
2022/03/14 02:37:26;;;;;;;13.07;10.43;;;5.20;60.60;;;;;;4991857;28;20044;-54
2022/03/14 02:40:10;;;;;;;16.17;10.80;;;5.20;61.10;;;;;;4992198;28;20104;-50
2022/03/14 02:42:55;;;;;;;16.35;11.07;;;5.10;61.70;;;;;;4985216;28;20101;-51
2022/03/14 02:45:40;;;;;;;14.68;10.35;;;5.10;61.60;;;;;;4992312;28;20506;-58
2022/03/14 02:48:25;;;;;;;16.75;11.15;;;5.00;60.90;;;;;;4992370;28;20406;-57
2022/03/14 02:51:09;;;;;;;14.75;10.50;;;5.00;61.10;;;;;;4992273;28;20068;-56
2022/03/14 02:53:55;;;;;;;13.52;10.20;;;4.90;61.10;;;;;;4986333;28;20057;-55
2022/03/14 02:56:40;;;;;;;15.90;11.20;;;4.90;62.00;;;;;;4981999;28;20551;-55
2022/03/14 02:59:25;;;;;;;16.33;11.05;;;4.90;62.60;;;;;;4992389;28;20049;-54
2022/03/14 03:02:10;;;;;;;14.45;11.02;;;4.90;62.90;;;;;;4991990;28;20085;-50
2022/03/14 03:04:55;;;;;;;17.27;11.52;;;4.80;63.50;;;;;;4992364;28;20069;-53
2022/03/14 03:07:39;;;;;;;;;;;4.70;62.60;;;;;;4991572;28;20128;-57
2022/03/14 03:10:23;;;;;;;15.57;10.13;;;4.70;61.10;;;;;;5004900;28;19921;-55
2022/03/14 03:13:10;;;;;;;14.27;10.27;;;4.70;60.20;;;;;;4972747;28;20046;-53
2022/03/14 03:15:54;;;;;;;16.40;9.68;;;4.70;60.60;;;;;;4976583;28;20501;-53
2022/03/14 03:18:39;;;;;;;15.05;10.63;;;4.60;60.00;;;;;;4991544;28;20037;-55
2022/03/14 03:21:23;;;;;;;15.63;10.98;;;4.60;59.90;;;;;;4990350;28;20303;-53
2022/03/14 03:24:08;;;;;;;15.10;10.23;;;4.60;59.40;;;;;;4991889;28;20627;-53
2022/03/14 03:26:52;;;;;;;16.30;9.98;;;4.60;59.80;;;;;;4991609;28;20033;-55
2022/03/14 03:29:36;;;;;;;16.30;9.77;;;4.60;59.90;;;;;;4992058;28;20041;-55
2022/03/14 03:32:21;;;;;;;15.52;10.77;;;4.70;59.70;;;;;;4991880;28;20037;-56
2022/03/14 03:35:05;;;;;;;14.82;10.07;;;4.70;59.50;;;;;;4991915;28;20081;-56
2022/03/14 03:37:50;;;;;;;14.18;10.25;;;4.70;59.80;;;;;;4991773;28;20609;-54
2022/03/14 03:40:34;;;;;;;12.70;9.65;;;4.70;60.50;;;;;;4991799;28;20413;-55
2022/03/14 03:43:19;;;;;;;16.38;11.50;;;4.70;60.70;;;;;;4992310;28;20457;-56
2022/03/14 03:46:03;;;;;;;14.27;10.77;;;4.70;60.40;;;;;;4972935;28;20046;-54
2022/03/14 03:48:48;;;;;;;26.58;11.52;;;4.70;61.00;;;;;;4989691;28;20902;-51
2022/03/14 03:51:31;;;;;;;14.55;10.38;;;4.60;61.50;;;;;;4995671;28;20545;-54
2022/03/14 03:54:16;;;;;;;17.27;10.88;;;4.70;61.30;;;;;;4995487;28;20100;-56
2022/03/14 03:57:00;;;;;;;19.20;9.85;;;4.50;61.90;;;;;;4995834;28;20100;-57
2022/03/14 03:59:44;;;;;;;14.38;10.65;;;4.30;61.00;;;;;;4995325;28;20118;-53
2022/03/14 04:02:28;;;;;;;12.25;9.35;;;4.30;59.60;;;;;;4995455;28;20556;-51
2022/03/14 04:05:16;;;;;;;13.80;9.93;;;4.30;58.10;;;;;;4995447;28;20036;-53
2022/03/14 04:08:00;;;;;;;16.73;10.85;;;4.40;58.10;;;;;;4995354;28;20045;-57
2022/03/14 04:10:47;;;;;;;13.50;9.65;;;4.50;57.10;;;;;;4995597;28;20046;-54
2022/03/14 04:13:31;;;;;;;15.15;9.85;;;4.50;56.80;;;;;;4995067;28;20086;-53
2022/03/14 04:16:17;;;;;;;15.30;10.43;;;4.60;58.70;;;;;;4995284;28;20091;-51
2022/03/14 04:19:02;;;;;;;15.32;10.13;;;4.60;61.50;;;;;;4994180;28;20076;-52
2022/03/14 04:21:52;;;;;;;18.92;10.85;;;4.60;62.40;;;;;;4994809;28;20021;-53
2022/03/14 04:24:37;;;;;;;17.55;11.10;;;4.50;63.40;;;;;;4994932;28;20150;-50
2022/03/14 04:27:23;;;;;;;14.75;10.45;;;4.40;65.20;;;;;;4994459;28;20108;-54
2022/03/14 04:30:09;;;;;;;14.20;10.10;;;4.30;66.10;;;;;;4994797;28;20040;-54
2022/03/14 04:32:53;;;;;;;;;;;4.10;64.00;;;;;;4994976;28;20042;-53
2022/03/14 04:35:38;;;;;;;13.52;10.60;;;4.00;64.10;;;;;;4994534;28;20321;-56
2022/03/14 04:38:22;;;;;;;14.32;10.25;;;4.10;64.10;;;;;;4994139;28;20058;-54
2022/03/14 04:41:06;;;;;;;15.02;9.98;;;4.10;64.70;;;;;;4994169;28;20045;-56
2022/03/14 04:43:50;;;;;;;15.02;10.50;;;4.10;65.10;;;;;;4993973;28;20061;-57
2022/03/14 04:46:34;;;;;;;13.90;10.63;;;4.00;65.40;;;;;;4994296;28;20057;-56
2022/03/14 04:49:19;;;;;;;14.75;10.77;;;4.10;65.90;;;;;;4994853;28;20037;-57
2022/03/14 04:52:05;;;;;;;16.75;11.23;;;4.00;66.60;;;;;;4974350;28;20100;-52
2022/03/14 04:54:49;;;;;;;17.08;11.15;;;4.10;66.70;;;;;;4977862;28;20041;-55
2022/03/14 04:57:33;;;;;;;20.17;11.93;;;4.00;66.80;;;;;;4994346;28;20108;-55
2022/03/14 05:00:17;;;;;;;19.30;12.30;;;4.00;67.60;;;;;;4993611;28;20029;-56
2022/03/14 05:03:03;;;;;;;20.15;11.75;;;4.00;68.40;;;;;;5006911;28;20045;-54
2022/03/14 05:05:47;;;;;;;16.13;10.95;;;4.00;69.00;;;;;;5006487;28;20089;-55
2022/03/14 05:08:31;;;;;;;20.30;12.88;;;3.90;69.40;;;;;;4994476;28;20046;-56
2022/03/14 05:11:15;;;;;;;17.40;11.30;;;3.80;70.20;;;;;;4993449;28;20152;-53
2022/03/14 05:14:00;;;;;;;17.75;11.77;;;3.80;70.00;;;;;;4993642;28;20041;-53
2022/03/14 05:16:44;;;;;;;19.02;12.57;;;3.70;70.10;;;;;;4992819;28;20097;-57
2022/03/14 05:19:28;;;;;;;16.77;11.77;;;3.60;70.20;;;;;;4993934;28;20084;-56
2022/03/14 05:22:13;;;;;;;19.02;11.63;;;3.60;70.60;;;;;;4993454;28;20049;-54
2022/03/14 05:24:57;;;;;;;20.88;10.93;;;3.70;70.80;;;;;;5006809;28;20105;-54
2022/03/14 05:27:41;;;;;;;17.50;12.45;;;3.60;71.70;;;;;;4974472;28;20042;-53
2022/03/14 05:30:26;;;;;;;24.17;12.75;;;3.50;72.40;;;;;;4977688;28;20045;-54
2022/03/14 05:33:10;;;;;;;27.58;12.57;;;3.50;73.00;;;;;;4993654;28;20049;-54
2022/03/14 05:35:54;;;;;;;31.13;13.95;;;3.40;73.60;;;;;;4993635;28;20446;-56
2022/03/14 05:38:38;;;;;;;25.60;13.45;;;3.40;72.70;;;;;;4993994;28;20402;-53
2022/03/14 05:41:23;;;;;;;19.67;12.35;;;3.40;71.20;;;;;;4993199;28;20048;-55
2022/03/14 05:44:07;;;;;;;20.08;12.05;;;3.40;71.00;;;;;;4993859;28;20390;-56
2022/03/14 05:46:51;;;;;;;16.25;11.18;;;3.50;70.20;;;;;;4993411;28;20124;-56
2022/03/14 05:49:35;;;;;;;24.63;13.02;;;3.50;69.90;;;;;;4993633;28;20080;-54
2022/03/14 05:52:21;;;;;;;37.70;14.90;;;3.60;70.00;;;;;;4993358;28;20037;-54
2022/03/14 05:55:06;;;;;;;27.33;12.48;;;3.60;70.50;;;;;;4993447;28;20057;-55
2022/03/14 05:57:52;;;;;;;21.70;11.35;;;3.60;71.00;;;;;;4992074;28;20513;-56
2022/03/14 06:00:36;;;;;;;20.95;11.93;;;3.60;70.20;;;;;;4993185;28;20068;-55
2022/03/14 06:03:20;;;;;;;24.58;11.82;;;3.60;70.30;;;;;;4978455;28;20034;-57
2022/03/14 06:06:05;;;;;;;18.10;12.30;;;3.70;70.80;;;;;;4993171;28;20065;-55
2022/03/14 06:08:48;;;;;;;23.85;12.27;;;3.70;71.30;;;;;;4992991;28;20087;-55
2022/03/14 06:11:33;;;;;;;19.60;12.80;;;3.80;71.70;;;;;;4992451;28;20462;-55
2022/03/14 06:14:17;;;;;;;29.75;13.27;;;3.70;71.10;;;;;;4990908;28;20049;-55
2022/03/14 06:17:01;;;;;;;28.70;15.32;;;3.80;70.80;;;;;;4991198;28;20038;-54
2022/03/14 06:19:45;;;;;;;34.80;16.63;;;3.80;69.50;;;;;;4992427;28;20073;-56
2022/03/14 06:22:30;;;;;;;26.25;14.27;;;3.90;69.40;;;;;;4977958;28;20096;-57
2022/03/14 06:25:17;;;;;;;36.10;19.48;;;4.00;68.00;;;;;;4991310;28;20718;-56
2022/03/14 06:28:01;;;;;;;36.97;16.33;;;4.00;67.50;;;;;;4992242;28;20049;-56
2022/03/14 06:30:46;;;;;;;47.92;20.83;;;4.10;66.20;;;;;;5005484;28;20101;-57
2022/03/14 06:33:30;;;;;;;32.80;17.75;;;4.10;65.50;;;;;;4991884;28;20449;-53
2022/03/14 06:36:14;;;;;;;30.13;14.52;;;4.00;64.20;;;;;;4972953;28;20049;-55
2022/03/14 06:38:59;;;;;;;21.90;13.73;;;4.00;63.90;;;;;;4975850;28;20033;-56
2022/03/14 06:41:44;;;;;;;20.83;12.90;;;4.10;64.10;;;;;;4990928;28;20033;-56
2022/03/14 06:44:29;;;;;;;31.38;14.73;;;4.30;64.40;;;;;;5004718;28;20539;-56
2022/03/14 06:47:13;;;;;;;22.88;13.40;;;4.40;64.00;;;;;;4992083;28;20045;-58
2022/03/14 06:49:57;;;;;;;26.27;13.43;;;4.40;63.00;;;;;;4990868;28;20133;-57
2022/03/14 06:52:42;;;;;;;20.25;12.15;;;4.50;63.10;;;;;;4991702;28;20049;-56
2022/03/14 06:55:26;;;;;;;26.75;13.55;;;4.60;62.90;;;;;;4985220;28;20410;-59
2022/03/14 06:58:11;;;;;;;20.48;12.63;;;4.70;62.90;;;;;;4987693;28;20812;-58
2022/03/14 07:00:57;;;;;;;18.20;12.55;;;4.70;60.00;;;;;;4976737;28;20109;-57
2022/03/14 07:03:41;;;;;;;19.55;12.27;;;4.80;59.70;;;;;;4991579;28;20065;-55
2022/03/14 07:06:26;;;;;;;30.02;13.40;;;4.90;58.50;;;;;;4991688;28;20121;-57
2022/03/14 07:09:09;;;;;;;23.23;12.50;;;4.90;58.20;;;;;;4991325;28;20676;-58
2022/03/14 07:11:54;;;;;;;27.83;14.00;;;4.90;58.10;;;;;;4991658;28;20052;-57
2022/03/14 07:14:38;;;;;;;25.55;12.98;;;4.90;58.00;;;;;;4972179;28;20177;-58
2022/03/14 07:17:22;;;;;;;26.08;13.07;;;5.00;57.70;;;;;;4982674;28;20058;-58
2022/03/14 07:20:07;;;;;;;22.08;11.70;;;5.10;57.40;;;;;;4992030;28;20057;-57
2022/03/14 07:22:53;;;;;;;;;;;5.30;57.40;;;;;;4991285;28;20456;-54
2022/03/14 07:25:38;;;;;;;18.95;11.52;;;5.40;56.60;;;;;;4996191;28;20001;-54
2022/03/14 07:28:21;;;;;;;24.10;11.90;;;5.50;56.50;;;;;;4988077;28;20081;-56
2022/03/14 07:31:06;;;;;;;15.65;10.98;;;5.50;56.60;;;;;;5004304;28;20089;-56
2022/03/14 07:33:50;;;;;;;25.20;13.38;;;5.60;57.10;;;;;;4993903;28;20045;-52
2022/03/14 07:36:34;;;;;;;20.58;12.93;;;5.70;56.10;;;;;;4994232;28;20045;-59
2022/03/14 07:39:19;;;;;;;26.50;12.35;;;5.80;55.90;;;;;;4992749;28;20053;-56
2022/03/14 07:42:03;;;;;;;18.50;11.95;;;5.90;56.00;;;;;;4993703;28;20057;-58
2022/03/14 07:44:48;;;;;;;20.77;13.13;;;6.00;55.90;;;;;;4995586;28;20061;-54
2022/03/14 07:47:32;;;;;;;21.88;12.73;;;5.90;57.00;;;;;;4992321;28;20050;-56
2022/03/14 07:50:18;;;;;;;29.05;13.43;;;6.00;56.80;;;;;;4992306;28;20397;-57
2022/03/14 07:53:03;;;;;;;20.52;12.57;;;6.10;56.80;;;;;;4993715;28;20053;-56
2022/03/14 07:55:47;;;;;;;25.10;11.93;;;6.20;57.10;;;;;;4976630;28;20054;-55
2022/03/14 07:58:32;;;;;;;30.02;12.77;;;6.30;57.50;;;;;;4994276;28;20041;-54
2022/03/14 08:01:19;;;;;;;31.42;16.98;;;6.30;57.90;;;;;;4963987;28;20081;-59
2022/03/14 08:04:04;;;;;;;22.25;12.88;;;6.40;58.40;;;;;;4991771;28;20085;-52
2022/03/14 08:06:49;;;;;;;21.42;12.73;;;6.50;58.30;;;;;;4992069;28;20727;-56
2022/03/14 08:09:33;;;;;;;15.82;11.85;;;6.60;58.00;;;;;;4992319;28;20085;-56
2022/03/14 08:12:18;;;;;;;17.88;12.68;;;6.70;57.90;;;;;;4991518;28;20390;-54
2022/03/14 08:15:04;;;;;;;28.20;16.38;;;6.70;58.00;;;;;;4993882;28;20104;-56
2022/03/14 08:17:50;;;;;;;19.45;13.02;;;6.70;58.10;;;;;;4979322;28;20077;-55
2022/03/14 08:20:34;;;;;;;;;;;6.90;57.80;;;;;;4988417;28;20092;-55
2022/03/14 08:23:19;;;;;;;28.67;13.93;;;6.90;58.00;;;;;;4990386;28;20396;-54
2022/03/14 08:26:04;;;;;;;21.13;13.68;;;7.00;58.20;;;;;;5003014;28;20050;-54
2022/03/14 08:28:48;;;;;;;18.80;13.25;;;7.10;57.70;;;;;;4959838;28;20077;-58
2022/03/14 08:31:32;;;;;;;39.17;15.18;;;7.10;57.60;;;;;;4993474;28;20043;-61
2022/03/14 08:34:16;;;;;;;27.52;13.80;;;7.20;57.50;;;;;;4988702;28;20533;-62
2022/03/14 08:37:01;;;;;;;30.55;14.32;;;7.40;57.20;;;;;;4985712;28;20069;-60
2022/03/14 08:39:46;;;;;;;26.23;12.73;;;7.50;56.70;;;;;;4986372;28;20089;-55
2022/03/14 08:42:31;;;;;;;25.58;13.43;;;7.60;56.80;;;;;;4992556;28;20564;-56
2022/03/14 08:45:15;;;;;;;20.85;13.18;;;7.70;57.10;;;;;;4992556;28;20077;-55
2022/03/14 08:47:59;;;;;;;23.13;12.80;;;7.70;56.90;;;;;;4987073;28;20037;-53
2022/03/14 08:50:44;;;;;;;17.48;11.13;;;7.80;56.50;;;;;;4991206;28;20045;-57
2022/03/14 08:53:28;;;;;;;23.50;13.25;;;7.80;56.30;;;;;;4984422;28;20125;-57
2022/03/14 08:56:12;;;;;;;16.45;11.32;;;7.90;55.90;;;;;;4972689;28;20069;-57
2022/03/14 08:58:56;;;;;;;17.17;11.40;;;8.10;55.50;;;;;;4993484;28;20057;-56
2022/03/14 09:01:41;;;;;;;22.30;12.50;;;8.20;55.40;;;;;;5004158;28;20418;-56
2022/03/14 09:04:26;;;;;;;;;;;8.20;54.20;;;;;;4992146;28;20397;-57
2022/03/14 09:07:10;;;;;;;23.50;11.68;;;8.30;54.00;;;;;;4977111;28;19960;-56
2022/03/14 09:09:59;;;;;;;16.27;11.55;;;8.40;53.60;;;;;;4993783;28;20110;-59
2022/03/14 09:12:44;;;;;;;21.13;12.02;;;8.40;53.10;;;;;;4984496;28;20054;-55
2022/03/14 09:15:28;;;;;;;15.30;11.07;;;8.30;53.10;;;;;;4993486;28;20041;-53
2022/03/14 09:18:12;;;;;;;19.98;11.45;;;8.30;52.90;;;;;;4991085;28;20029;-52
2022/03/14 09:20:57;;;;;;;26.63;13.40;;;8.40;53.00;;;;;;4993087;28;20049;-56
2022/03/14 09:23:44;;;;;;;21.40;12.38;;;8.30;53.00;;;;;;4992817;28;20445;-55
2022/03/14 09:26:30;;;;;;;24.92;12.38;;;8.40;53.50;;;;;;4985670;28;20054;-57
2022/03/14 09:29:15;;;;;;;21.65;12.43;;;8.50;52.90;;;;;;4987880;28;20045;-55
2022/03/14 09:31:59;;;;;;;18.00;11.95;;;8.50;52.70;;;;;;4981503;28;20089;-54
2022/03/14 09:34:43;;;;;;;21.10;13.23;;;8.60;52.60;;;;;;4990660;28;20073;-58
2022/03/14 09:37:27;;;;;;;18.17;12.30;;;8.70;52.20;;;;;;4984700;28;20801;-54
2022/03/14 09:40:16;;;;;;;37.70;14.05;;;8.80;51.60;;;;;;4990476;28;20037;-56
2022/03/14 09:43:01;;;;;;;26.02;13.60;;;9.00;51.90;;;;;;4986281;28;20106;-60
2022/03/14 09:45:49;;;;;;;;;;;9.20;51.50;;;;;;4990745;28;20112;-57
2022/03/14 09:48:37;;;;;;;16.85;12.60;;;9.30;51.30;;;;;;4992553;28;19999;-57
2022/03/14 09:51:26;;;;;;;18.30;11.90;;;9.30;51.60;;;;;;4992018;28;20037;-59
2022/03/14 09:54:12;;;;;;;20.98;12.77;;;9.50;51.40;;;;;;4983826;28;20106;-56
2022/03/14 09:56:57;;;;;;;18.45;11.98;;;9.60;51.60;;;;;;4993323;28;20053;-57
2022/03/14 09:59:42;;;;;;;16.08;11.15;;;9.90;51.50;;;;;;4988989;28;20086;-58
2022/03/14 10:02:27;;;;;;;18.65;13.20;;;10.00;51.10;;;;;;4985866;28;20037;-57
2022/03/14 10:05:13;;;;;;;20.13;12.77;;;10.00;51.60;;;;;;4989940;28;20045;-56
2022/03/14 10:07:57;;;;;;;17.55;13.82;;;10.20;50.90;;;;;;4989914;28;20112;-54
2022/03/14 10:10:42;;;;;;;17.38;11.98;;;10.00;51.00;;;;;;4992580;28;20088;-54
2022/03/14 10:13:27;;;;;;;22.08;13.38;;;10.10;51.70;;;;;;4991641;28;20045;-57
2022/03/14 10:16:11;;;;;;;20.10;12.80;;;10.10;51.60;;;;;;4990434;28;20130;-59
2022/03/14 10:19:05;;;;;;;20.67;12.88;;;10.30;51.50;;;;;;4989997;28;20085;-57
2022/03/14 10:21:52;;;;;;;17.35;14.38;;;10.50;51.30;;;;;;4991103;28;20037;-58
2022/03/14 10:24:38;;;;;;;21.35;13.57;;;10.50;51.50;;;;;;4982978;28;20096;-54
2022/03/14 10:27:26;;;;;;;17.05;13.68;;;10.50;51.70;;;;;;4990147;28;20044;-57
2022/03/14 10:30:29;;;;;;;16.08;12.32;;;10.60;51.50;;;;;;4990275;28;20049;-55
2022/03/14 10:33:14;;;;;;;18.10;12.50;;;10.70;50.90;;;;;;4986624;28;20034;-58
2022/03/14 10:35:59;;;;;;;22.95;13.80;;;10.70;51.50;;;;;;4992773;28;20033;-58
2022/03/14 10:38:44;;;;;;;15.43;13.05;;;10.70;51.40;;;;;;4982709;28;20081;-57
2022/03/14 10:41:28;;;;;;;20.50;13.63;;;10.80;52.40;;;;;;4992103;28;20077;-54
2022/03/14 10:44:23;;;;;;;29.73;15.90;;;10.70;52.80;;;;;;4989229;28;20124;-58
2022/03/14 10:47:10;;;;;;;22.27;13.52;;;10.80;53.00;;;;;;4991158;28;20114;-59
2022/03/14 10:49:55;;;;;;;20.25;14.02;;;10.80;53.30;;;;;;4986024;28;20119;-59
2022/03/14 10:52:39;;;;;;;20.23;13.57;;;10.90;53.90;;;;;;4989745;28;20109;-56
2022/03/14 10:55:40;;;;;;;23.45;14.73;;;11.00;55.30;;;;;;4987719;28;20042;-60
2022/03/14 10:58:30;;;;;;;30.38;14.68;;;11.00;56.20;;;;;;4986503;28;20045;-58
2022/03/14 11:01:14;;;;;;;19.10;14.23;;;11.00;58.60;;;;;;4990832;28;20034;-63
2022/03/14 11:03:58;;;;;;;20.17;14.07;;;10.90;59.90;;;;;;4989017;28;20041;-61
2022/03/14 11:06:58;;;;;;;20.98;15.52;;;11.00;60.40;;;;;;5004592;28;20066;-58
2022/03/14 11:09:47;;;;;;;18.13;14.63;;;11.00;60.70;;;;;;4992076;28;20077;-58
2022/03/14 11:12:31;;;;;;;18.08;14.65;;;11.10;60.80;;;;;;4992024;28;20057;-57
2022/03/14 11:15:16;;;;;;;25.08;14.60;;;11.00;61.90;;;;;;4979654;28;20041;-56
2022/03/14 11:18:01;;;;;;;20.73;14.77;;;10.90;62.60;;;;;;4991440;28;20042;-57
2022/03/14 11:20:46;;;;;;;20.85;14.60;;;10.90;62.90;;;;;;4988721;28;20101;-56
2022/03/14 11:23:31;;;;;;;23.00;16.38;;;11.00;62.60;;;;;;4990781;28;20050;-59
2022/03/14 11:26:20;;;;;;;21.90;15.00;;;10.90;63.20;;;;;;4986972;28;20541;-56
2022/03/14 11:29:07;;;;;;;22.83;15.73;;;10.90;63.40;;;;;;4990232;28;20537;-53
2022/03/14 11:31:52;;;;;;;23.30;15.63;;;11.00;64.10;;;;;;4979021;28;20037;-59
2022/03/14 11:34:36;;;;;;;20.20;15.52;;;11.20;63.40;;;;;;4990324;28;20037;-56
2022/03/14 11:37:21;;;;;;;23.43;15.87;;;11.20;63.10;;;;;;4990219;28;20105;-55
2022/03/14 11:40:07;;;;;;;21.75;15.48;;;11.10;63.40;;;;;;4989668;28;20442;-55
2022/03/14 11:42:51;;;;;;;24.42;14.60;;;10.90;63.30;;;;;;4982638;28;20033;-56
2022/03/14 11:45:36;;;;;;;23.47;14.20;;;11.00;62.90;;;;;;4990414;28;20401;-60
2022/03/14 11:48:21;;;;;;;28.48;15.75;;;11.10;61.40;;;;;;4991389;28;20621;-60
2022/03/14 11:51:09;;;;;;;20.30;14.25;;;11.00;60.60;;;;;;4991373;28;20146;-59
2022/03/14 11:53:53;;;;;;;15.88;13.48;;;11.10;59.50;;;;;;4991118;28;20049;-60
2022/03/14 11:56:39;;;;;;;23.80;14.30;;;11.10;59.00;;;;;;4975892;28;20070;-58
2022/03/14 11:59:32;;;;;;;21.70;13.95;;;11.10;59.80;;;;;;4984025;28;20030;-54
2022/03/14 12:02:41;;;;;;;19.98;14.90;;;11.10;60.50;;;;;;4991452;28;20452;-50
2022/03/14 12:05:31;;;;;;;20.00;13.68;;;11.10;60.90;;;;;;4988536;28;20050;-50
2022/03/14 12:08:15;;;;;;;22.65;14.32;;;11.20;62.40;;;;;;4989610;28;20072;-52
2022/03/14 12:11:40;;;;;;;22.50;14.02;;;11.30;61.80;;;;;;4991243;28;20048;-50
2022/03/14 12:14:55;;;;;;;17.30;13.40;;;11.20;63.40;;;;;;4970163;28;20046;-54
2022/03/14 12:17:43;;;;;;;19.95;14.35;;;11.20;63.90;;;;;;4972745;28;20042;-50
2022/03/14 12:20:29;;;;;;;21.35;13.40;;;11.10;64.80;;;;;;4976667;28;20050;-51
2022/03/14 12:23:24;;;;;;;22.63;14.07;;;11.10;65.80;;;;;;4992362;28;20037;-48
2022/03/14 12:26:25;;;;;;;17.65;12.88;;;11.20;66.50;;;;;;5007159;28;20649;-49
2022/03/14 12:29:35;;;;;;;14.48;12.02;;;11.10;68.70;;;;;;4994811;28;20397;-48
2022/03/14 12:32:29;;;;;;;16.00;12.20;;;10.90;70.70;;;;;;4993735;28;20069;-52
2022/03/14 12:35:17;;;;;;;12.27;10.20;;;10.80;72.70;;;;;;4976299;28;20066;-50
2022/03/14 12:38:15;;;;;;;13.13;9.98;;;10.60;76.40;;;;;;4975583;28;20077;-52
2022/03/14 12:41:00;;;;;;;18.40;10.07;;;10.50;78.90;;;;;;4977881;28;20057;-48
2022/03/14 12:43:44;;;;;;;12.93;10.85;;;10.50;80.70;;;;;;5002401;28;20081;-46
2022/03/14 12:46:29;;;;;;;15.90;10.20;;;10.30;82.40;;;;;;4978650;28;20155;-47
2022/03/14 12:49:46;;;;;;;13.52;10.80;;;10.20;83.70;;;;;;4974909;28;20785;-52
2022/03/14 12:52:30;;;;;;;19.75;12.45;;;10.20;84.90;;;;;;4978929;28;20561;-50
2022/03/14 12:55:19;;;;;;;15.15;10.60;;;10.10;87.30;;;;;;4990313;28;20101;-50
2022/03/14 12:58:04;;;;;;;14.95;10.98;;;9.90;91.10;;;;;;4974545;28;20050;-55
2022/03/14 13:00:49;;;;;;;10.60;9.07;;;9.70;93.80;;;;;;4974396;28;20105;-48
2022/03/14 13:03:35;;;;;;;14.02;10.13;;;9.50;97.30;;;;;;4974653;28;20379;-55
2022/03/14 13:06:33;;;;;;;13.65;10.50;;;9.40;99.90;;;;;;4974600;28;20041;-50
2022/03/14 13:09:30;;;;;;;13.45;10.13;;;9.30;99.90;;;;;;4993866;28;20446;-54
2022/03/14 13:12:15;;;;;;;12.52;9.02;;;9.10;99.90;;;;;;4981139;28;20042;-55
2022/03/14 13:15:05;;;;;;;12.20;9.60;;;9.00;99.90;;;;;;4985109;28;20084;-57
2022/03/14 13:17:49;;;;;;;12.07;10.05;;;8.80;99.90;;;;;;4993200;28;20556;-55
2022/03/14 13:20:34;;;;;;;13.52;10.40;;;8.70;99.90;;;;;;4992680;28;20070;-56
2022/03/14 13:23:20;;;;;;;13.60;10.90;;;8.70;99.90;;;;;;4993271;28;20045;-49
2022/03/14 13:26:05;;;;;;;13.75;10.02;;;8.70;99.90;;;;;;4993272;28;20037;-55
2022/03/14 13:28:51;;;;;;;14.77;10.90;;;8.60;99.90;;;;;;4992369;28;20037;-50
2022/03/14 13:31:40;;;;;;;14.88;10.85;;;8.60;99.90;;;;;;4990835;28;20089;-53
2022/03/14 13:34:28;;;;;;;13.50;10.73;;;8.50;99.90;;;;;;4989775;28;20558;-54
2022/03/14 13:37:12;;;;;;;14.55;10.80;;;8.50;99.90;;;;;;4992821;28;20029;-56
2022/03/14 13:39:57;;;;;;;13.07;11.18;;;8.60;99.90;;;;;;4977084;28;20076;-57
2022/03/14 13:42:41;;;;;;;15.60;11.83;;;8.50;99.90;;;;;;4989837;28;20065;-54
2022/03/14 13:45:25;;;;;;;16.42;11.73;;;8.60;99.90;;;;;;4987429;28;20089;-54
2022/03/14 13:48:10;;;;;;;13.07;11.65;;;8.60;99.90;;;;;;4990266;28;20492;-54
2022/03/14 13:50:54;;;;;;;15.18;12.00;;;8.60;99.90;;;;;;5004921;28;20059;-56
2022/03/14 13:53:45;;;;;;;13.80;11.70;;;8.60;99.90;;;;;;5003921;28;20108;-53
2022/03/14 13:56:38;;;;;;;15.48;12.52;;;8.60;99.90;;;;;;4992681;28;20042;-57
2022/03/14 13:59:25;;;;;;;16.25;12.98;;;8.50;99.90;;;;;;4992764;28;20577;-56
2022/03/14 14:02:11;;;;;;;14.93;11.68;;;8.50;99.90;;;;;;5005010;28;20050;-57
2022/03/14 14:04:56;;;;;;;16.80;13.18;;;8.50;99.90;;;;;;4992960;28;20536;-56
2022/03/14 14:08:00;;;;;;;15.98;13.13;;;8.50;99.90;;;;;;4993024;28;20118;-51
2022/03/14 14:10:46;;;;;;;17.92;13.43;;;8.50;99.90;;;;;;4991120;28;20049;-53
2022/03/14 14:13:46;;;;;;;18.17;13.65;;;8.50;99.90;;;;;;4992064;28;20054;-53
2022/03/14 14:16:37;;;;;;;19.40;14.73;;;8.40;99.90;;;;;;4992452;28;20512;-53